Aeroporto :
LOGIN :

Iscrizione | Disclaimer

   EN    FR    IT 

 










Sommario :    VFR   VFR Marginale   IFR   IFR Intensivo   IFR Molto Intensivo
Visibilità : 
Base nubi : 
>= 8 km
>= 3000ft
5 / 8 km
1000 / 3000 ft
1500m / 5 km
500 / 1000 ft
800 / 1500m
200 / 500 ft
< 800m
< 200 ft
Simboli :   Temporali  Nebbia  Neve Forte  Precipitazioni Forti  Vento > 20 kt
SIGMETs :   Varie  Temporali  Ghiacco  Turbolenza  Onda orograficha  Ceneri Vulcaniche







- Altitudine del aeroporto : 308 ft
- Codice IATA : POZ


EPPO - Poznan-Lawica

ULTIMO METAR :
  • 240430Z 27002KT CAVOK 08/07 Q1016 R10/09//95

METARs OBSOLETI :
  • 240400Z 29001KT CAVOK 07/06 Q1015 R10/09//95
  • 240330Z 30001KT CAVOK 06/06 Q1015 R10/09//95
  • 240300Z 26001KT CAVOK 06/06 Q1016 R10/09//95
  • 240230Z 33002KT CAVOK 05/04 Q1016 R10/09//95
  • 240200Z 30002KT CAVOK 06/06 Q1016 R10/09//95

TAF TAF EPPO
Valido dal 24 a 00 ore il 25 a 00 ore UTC


232330Z 2400/2424 31004KT CAVOK
Nessun NOTAM noto per questo aeroporto.



MetMap, La meteo Aeronautica in un colpo d'occhio ! - Copyright ORBIFLY Dicembre 2007 - Disclaimer

ORBIFLY MET'MAP TEAM :

Programmazione e sviluppo : Alexandra Zaïnal
Concezione e sviluppo : Baudouin d'Aumeries
Co-Programmazione e sviluppo : Marc-Olivier Méhu
Supporto tecnico e logistico : Manuel Goepfert
Aiuto per la traduzione : Arnaldo La Scala

Contatto : metmap@orbifly.com




FONTI E CREDITI :

   NOAA